Argos, Indiana
Current Conditions -  °F | °C
As of 9:55 AM on Friday 19 Dec 2014 (Local Time) from KRCR Reporting Station
Haze Haze  
Wind Chill: 30°   Ceiling: 2400
Heat Index: 30°   Visibility: 5mi
Dew Point: 28°   Wind: 3mph
Humidity: 93%   Direction: 250°WSW
Pressure: 30.29"   Gusts: NA
Location:  41.23°N, 86.24°W
Report Text: KRCR 191455Z AUTO 25003KT 5SM BR BKN024 M01/M02 A3029 RMK AO2
Loading
Personal Weather Stations






























Interactive Weather Map New forecast layout! Learn more

10-Day Weather Forecast

Advertisements
Track Severe Weather on mobile